Pagina principale
METAR-TAF:

METAR-TAF

Aeroporti :

Aeroporto di Minna

Minna, Nigeria

latitudine: 9-37N, longitudine: 6-32E, altezza: 260 m

Osservazione

Il bollettino è stato emesso 49 minuti fa, alle 22:00 UTC
Vento 18 kt da nord/nord-est
Temperature 30°C
Umidità 19%
Pressione 1013 hPa
Visibilità: 8000 m

METAR: DNMN 222200Z 03018KT 8000 NSC 30/04 Q1013

Ora: 23:49 (22:49 UTC)

Previsione

Il bollettino è stato emesso 5 ore e 49 minuti fa, alle 17:00 UTC
Previsione valida dal 22 alle 18 UTC al 23 alle 24 UTC
Vento 14 kt da nord/nord-est con raffiche fino a 26 kt
Visibilità 10 km o più
nessuna nube inferiore a 1500 m e nessun cumulonembo
Temporaneamente
dal 23 alle 03 UTC al 23 alle 09 UTC
Visibilità: 5000 m
foschia

TAF: DNMN 221700Z 2218/2324 03014G26KT CAVOK TEMPO 2303/2309 5000 HZ

Osservazioni e previsioni meteorologiche di più di 4000 aeroporti (messaggi METAR e TAF).

Le stazioni disponibili sono rappresentate dai dischi gialli e rossi sulla carta.

Puntare il mouse per vedere il nome della stazione.

Clicca sopra per visualizzare le osservazioni e previsioni meteorologiche.

Per cambiare la mappa : fare clic sui pulsanti verdi con una croce nera per ingrandire, il pulsante verde con un trattino per diminuire, o sulla freccia verde per le mappe adiacenti.


METAR-TAF: